Pagrindinis puslapis
METAR-TAF:

METAR-TAF

Oro uostai :

Niamėjus, Nigeris

platuma: 13-29N, ilguma: 002-10E, Aukštis: 223 m

Dabartinis oras

Ataskaita buvo paskelbta 24 minutes, ne 15:00 UTC
Vėjas 4 kt iš Pietvakarių, svyruoja nuo Pietų/Pietryčių ir Vakarų
Temperatūra 37°C
Drėgmė 31%
Slėgis 1010 hPa
Matomumas 10 km arba daugiau
Mažai debesys ne aukštis 3300 ft

METAR: DRRN 251500Z 22004KT 150V280 9999 FEW033 37/17 Q1010 NOSIG

Laikas: 16:24 (15:24 UTC)

Prognozė

Ataskaita buvo paskelbta 4 valandos ir 24 minutes, ne 11:00 UTC
Prognozė galioja nuo 25 metu 12 UTC su 26 metu 18 UTC
Vėjas 8 kt iš Rytų/Pietryčių
Matomumas 10 km arba daugiau
Mažai debesys ne aukštis 3300 ft
Tikimybė 30% :
Laikinai
nuo 25 metu 15 UTC su 25 metu 18 UTC
Mažai debesys ne aukštis 3300 ft, Liūtiniai kamuoliniai debesys.
perkūnija

TAF: DRRN 251100Z 2512/2618 12008KT 9999 FEW033 PROB30 TEMPO 2515/2518 TS FEW033CB

Orai ataskaitas ir orų prognozės (METAR, TAF).

turimą stotys yra geltonos ir raudonos taškus žemėlapyje.

Perkelti pele per norėdami pamatyti stoties vardą.

Tada spustelėkite, norėdami matyti oro stebėjimo ir prognozės.

Norėdami pakeisti žemėlapį: spustelėkite ant žalios mygtukų su juodo kryžiaus žemyn,; žalią mygtuką su brūkšneliu, jei norite nutolinti; arba žalių rodyklių gretimoms žemėlapius.


METAR-TAF: